createdAt,value
2018-11-04T00:00:27.350Z,994.90
2018-11-04T00:01:27.395Z,994.93
2018-11-04T00:02:27.311Z,994.96
2018-11-04T00:03:27.310Z,994.94
2018-11-04T00:04:27.290Z,994.90
2018-11-04T00:05:27.294Z,994.90
2018-11-04T00:06:27.272Z,994.91
2018-11-04T00:07:27.259Z,994.88
2018-11-04T00:08:27.250Z,994.85
2018-11-04T00:09:27.242Z,994.92
2018-11-04T00:10:27.240Z,994.84
2018-11-04T00:11:27.215Z,994.88
2018-11-04T00:12:27.206Z,994.87
2018-11-04T00:13:27.195Z,994.89
2018-11-04T00:14:27.185Z,994.87
2018-11-04T00:15:27.234Z,994.83
2018-11-04T00:16:27.166Z,994.84
2018-11-04T00:17:27.153Z,994.81
2018-11-04T00:18:27.144Z,994.82
2018-11-04T00:19:27.143Z,994.81
2018-11-04T00:20:27.139Z,994.78
2018-11-04T00:21:27.135Z,994.81
2018-11-04T00:22:27.143Z,994.79
2018-11-04T00:23:27.090Z,994.72
2018-11-04T00:24:27.082Z,994.71
2018-11-04T00:25:27.085Z,994.72
2018-11-04T00:26:27.063Z,994.68
2018-11-04T00:27:27.077Z,994.73
2018-11-04T00:28:27.056Z,994.72
2018-11-04T00:29:27.030Z,994.68
2018-11-04T00:30:27.033Z,994.64
2018-11-04T00:31:27.005Z,994.69
2018-11-04T00:32:26.994Z,994.57
2018-11-04T00:33:27.014Z,994.57
2018-11-04T00:34:26.973Z,994.52
2018-11-04T00:35:26.978Z,994.48
2018-11-04T00:36:26.954Z,994.53
2018-11-04T00:37:26.940Z,994.53
2018-11-04T00:38:26.929Z,994.49
2018-11-04T00:39:26.955Z,994.45
2018-11-04T00:40:26.925Z,994.48
2018-11-04T00:41:26.898Z,994.50
2018-11-04T00:42:26.886Z,994.55
2018-11-04T00:43:26.875Z,994.49
2018-11-04T00:44:26.865Z,994.55
2018-11-04T00:45:27.006Z,994.54
2018-11-04T00:46:26.844Z,994.52
2018-11-04T00:47:26.838Z,994.51
2018-11-04T00:48:26.888Z,994.53
2018-11-04T00:49:26.818Z,994.54
2018-11-04T00:50:26.821Z,994.49
2018-11-04T00:51:26.813Z,994.49
2018-11-04T00:52:26.797Z,994.47
2018-11-04T00:53:26.800Z,994.43
2018-11-04T00:54:26.761Z,994.43
2018-11-04T00:55:26.762Z,994.38
2018-11-04T00:56:26.742Z,994.38
2018-11-04T00:57:26.730Z,994.40
2018-11-04T00:58:26.715Z,994.36
2018-11-04T00:59:26.773Z,994.33
2018-11-04T01:00:26.712Z,994.29
2018-11-04T01:01:26.732Z,994.31
2018-11-04T01:02:26.690Z,994.28
2018-11-04T01:03:26.662Z,994.23
2018-11-04T01:04:26.653Z,994.24
2018-11-04T01:05:26.702Z,994.21
2018-11-04T01:06:26.630Z,994.19
2018-11-04T01:07:26.672Z,994.20
2018-11-04T01:08:26.613Z,994.17
2018-11-04T01:09:26.598Z,994.19
2018-11-04T01:10:26.601Z,994.22
2018-11-04T01:11:26.608Z,994.13
2018-11-04T01:12:26.567Z,994.13
2018-11-04T01:13:26.560Z,994.09
2018-11-04T01:14:26.545Z,994.07
2018-11-04T01:15:26.552Z,994.15
2018-11-04T01:16:26.524Z,994.24
2018-11-04T01:17:26.545Z,994.26
2018-11-04T01:18:26.502Z,994.22
2018-11-04T01:19:26.493Z,994.23
2018-11-04T01:20:26.481Z,994.21
2018-11-04T01:21:26.483Z,994.24
2018-11-04T01:22:26.461Z,994.21
2018-11-04T01:23:26.487Z,994.19
2018-11-04T01:24:26.505Z,994.18
2018-11-04T01:25:26.431Z,994.21
2018-11-04T01:26:26.430Z,994.17
2018-11-04T01:27:26.413Z,994.21
2018-11-04T01:28:26.394Z,994.13
2018-11-04T01:29:26.420Z,994.13
2018-11-04T01:30:26.583Z,994.05
2018-11-04T01:31:26.379Z,994.08
2018-11-04T01:32:26.352Z,994.13
2018-11-04T01:33:26.350Z,994.12
2018-11-04T01:34:26.332Z,994.08
2018-11-04T01:35:26.436Z,994.08
2018-11-04T01:36:26.325Z,994.04
2018-11-04T01:37:26.298Z,994.00
2018-11-04T01:38:26.287Z,994.00
2018-11-04T01:39:26.278Z,993.94
2018-11-04T01:40:26.266Z,993.94
2018-11-04T01:41:26.316Z,993.95
2018-11-04T01:42:26.247Z,993.99
2018-11-04T01:43:26.239Z,993.97
2018-11-04T01:44:26.225Z,993.94
2018-11-04T01:45:26.215Z,993.92
2018-11-04T01:46:26.217Z,993.96
2018-11-04T01:47:26.240Z,993.93
2018-11-04T01:48:26.185Z,993.90
2018-11-04T01:49:26.170Z,993.89
2018-11-04T01:50:26.161Z,993.85
2018-11-04T01:51:26.164Z,993.86
2018-11-04T01:52:26.141Z,993.84
2018-11-04T01:53:26.170Z,993.83
2018-11-04T01:54:26.120Z,993.82
2018-11-04T01:55:26.109Z,993.89
2018-11-04T01:56:26.111Z,993.84
2018-11-04T01:57:26.086Z,993.88
2018-11-04T01:58:26.077Z,993.93
2018-11-04T01:59:26.107Z,993.84
2018-11-04T02:00:26.054Z,993.83
2018-11-04T02:01:26.059Z,993.78
2018-11-04T02:02:26.037Z,993.84
2018-11-04T02:03:26.030Z,993.76
2018-11-04T02:04:26.014Z,993.81
2018-11-04T02:05:26.054Z,993.84
2018-11-04T02:06:26.006Z,993.82
2018-11-04T02:07:25.981Z,993.80
2018-11-04T02:08:25.969Z,993.81
2018-11-04T02:09:25.958Z,993.77
2018-11-04T02:10:25.949Z,993.78
2018-11-04T02:11:26.015Z,993.77
2018-11-04T02:12:25.927Z,993.83
2018-11-04T02:13:25.917Z,993.83
2018-11-04T02:14:25.905Z,993.77
2018-11-04T02:15:25.894Z,993.70
2018-11-04T02:16:25.897Z,993.68
2018-11-04T02:17:25.904Z,993.65
2018-11-04T02:18:25.863Z,993.66
2018-11-04T02:19:25.853Z,993.67
2018-11-04T02:20:25.840Z,993.70
2018-11-04T02:21:25.852Z,993.71
2018-11-04T02:22:25.819Z,993.62
2018-11-04T02:23:25.832Z,993.62
2018-11-04T02:24:25.822Z,993.64
2018-11-04T02:25:25.789Z,993.59
2018-11-04T02:26:25.793Z,993.64
2018-11-04T02:27:25.768Z,993.61
2018-11-04T02:28:25.760Z,993.56
2018-11-04T02:29:25.744Z,993.55
2018-11-04T02:30:25.756Z,993.61
2018-11-04T02:31:25.738Z,993.60
2018-11-04T02:32:25.713Z,993.62
2018-11-04T02:33:25.707Z,993.61
2018-11-04T02:34:25.694Z,993.51
2018-11-04T02:35:25.681Z,993.51
2018-11-04T02:36:25.717Z,993.50
2018-11-04T02:37:25.670Z,993.49
2018-11-04T02:38:25.649Z,993.48
2018-11-04T02:39:25.638Z,993.52
2018-11-04T02:40:25.629Z,993.54
2018-11-04T02:41:25.630Z,993.45
2018-11-04T02:42:25.620Z,993.43
2018-11-04T02:43:25.596Z,993.42
2018-11-04T02:44:25.589Z,993.40
2018-11-04T02:45:25.575Z,993.37
2018-11-04T02:46:25.581Z,993.39
2018-11-04T02:47:25.555Z,993.30
2018-11-04T02:48:25.581Z,993.35
2018-11-04T02:49:25.532Z,993.32
2018-11-04T02:50:25.522Z,993.29
2018-11-04T02:51:25.526Z,993.29
2018-11-04T02:52:25.504Z,993.28
2018-11-04T02:53:25.492Z,993.23
2018-11-04T02:54:25.532Z,993.22
2018-11-04T02:55:25.470Z,993.20
2018-11-04T02:56:25.475Z,993.20
2018-11-04T02:57:25.450Z,993.22
2018-11-04T02:58:25.439Z,993.21
2018-11-04T02:59:25.426Z,993.15
2018-11-04T03:00:25.464Z,993.15
2018-11-04T03:01:25.418Z,993.17
2018-11-04T03:02:25.399Z,993.10
2018-11-04T03:03:25.386Z,993.05
2018-11-04T03:04:25.373Z,993.02
2018-11-04T03:05:25.364Z,993.08
2018-11-04T03:06:25.412Z,993.02
2018-11-04T03:07:25.340Z,992.99
2018-11-04T03:08:25.333Z,993.02
2018-11-04T03:09:25.320Z,993.03
2018-11-04T03:10:25.308Z,992.99
2018-11-04T03:11:25.311Z,992.94
2018-11-04T03:12:25.322Z,992.98
2018-11-04T03:13:25.278Z,993.07
2018-11-04T03:14:25.268Z,992.99
2018-11-04T03:15:25.258Z,992.96
2018-11-04T03:16:25.260Z,992.96
2018-11-04T03:17:25.234Z,992.90
2018-11-04T03:18:25.251Z,992.89
2018-11-04T03:19:25.223Z,992.90
2018-11-04T03:20:25.204Z,992.87
2018-11-04T03:21:25.206Z,992.80
2018-11-04T03:22:25.184Z,992.83
2018-11-04T03:23:25.174Z,992.81
2018-11-04T03:24:25.182Z,992.82
2018-11-04T03:25:25.150Z,992.82
2018-11-04T03:26:25.152Z,992.77
2018-11-04T03:27:25.129Z,992.80
2018-11-04T03:28:25.117Z,992.81
2018-11-04T03:29:25.108Z,992.83
2018-11-04T03:30:25.132Z,992.85
2018-11-04T03:31:25.100Z,992.80
2018-11-04T03:32:25.075Z,992.77
2018-11-04T03:33:25.064Z,992.73
2018-11-04T03:34:25.057Z,992.73
2018-11-04T03:35:25.047Z,992.75
2018-11-04T03:36:25.081Z,992.73
2018-11-04T03:37:25.024Z,992.72
2018-11-04T03:38:25.015Z,992.76
2018-11-04T03:39:25.002Z,992.73
2018-11-04T03:40:24.991Z,992.73
2018-11-04T03:41:24.996Z,992.70
2018-11-04T03:42:25.015Z,992.75
2018-11-04T03:43:24.958Z,992.69
2018-11-04T03:44:24.951Z,992.65
2018-11-04T03:45:24.937Z,992.66
2018-11-04T03:46:24.942Z,992.64
2018-11-04T03:47:24.914Z,992.65
2018-11-04T03:48:24.955Z,992.61
2018-11-04T03:49:24.895Z,992.60
2018-11-04T03:50:24.882Z,992.55
2018-11-04T03:51:24.886Z,992.53
2018-11-04T03:52:24.863Z,992.51
2018-11-04T03:53:24.853Z,992.54
2018-11-04T03:54:24.907Z,992.54
2018-11-04T03:55:24.829Z,992.50
2018-11-04T03:56:24.837Z,992.53
2018-11-04T03:57:24.808Z,992.50
2018-11-04T03:58:24.796Z,992.54
2018-11-04T03:59:24.787Z,992.44
2018-11-04T04:00:24.834Z,992.41
2018-11-04T04:01:24.785Z,992.43
2018-11-04T04:02:24.759Z,992.39
2018-11-04T04:03:24.748Z,992.36
2018-11-04T04:04:24.739Z,992.42
2018-11-04T04:05:24.723Z,992.37
2018-11-04T04:06:24.766Z,992.39
2018-11-04T04:07:24.701Z,992.42
2018-11-04T04:08:24.726Z,992.45
2018-11-04T04:09:24.682Z,992.44
2018-11-04T04:10:24.668Z,992.44
2018-11-04T04:11:24.680Z,992.43
2018-11-04T04:12:24.698Z,992.45
2018-11-04T04:13:24.637Z,992.46
2018-11-04T04:14:24.627Z,992.45
2018-11-04T04:15:24.616Z,992.42
2018-11-04T04:16:24.620Z,992.41
2018-11-04T04:17:24.593Z,992.38
2018-11-04T04:18:24.623Z,992.41
2018-11-04T04:19:24.574Z,992.32
2018-11-04T04:20:24.563Z,992.37
2018-11-04T04:21:24.564Z,992.33
2018-11-04T04:22:24.540Z,992.30
2018-11-04T04:23:24.536Z,992.32
2018-11-04T04:24:24.570Z,992.31
2018-11-04T04:25:24.513Z,992.30
2018-11-04T04:26:24.519Z,992.44
2018-11-04T04:27:24.486Z,992.46
2018-11-04T04:28:24.480Z,992.45
2018-11-04T04:29:24.464Z,992.38
2018-11-04T04:30:24.496Z,992.40
2018-11-04T04:31:24.456Z,992.36
2018-11-04T04:32:24.440Z,992.41
2018-11-04T04:33:24.422Z,992.39
2018-11-04T04:34:24.416Z,992.37
2018-11-04T04:35:24.402Z,992.38
2018-11-04T04:36:24.456Z,992.29
2018-11-04T04:37:24.381Z,992.31
2018-11-04T04:38:24.369Z,992.33
2018-11-04T04:39:24.364Z,992.34
2018-11-04T04:40:24.349Z,992.32
2018-11-04T04:41:24.356Z,992.34
2018-11-04T04:42:24.351Z,992.35
2018-11-04T04:43:24.318Z,992.35
2018-11-04T04:44:24.306Z,992.39
2018-11-04T04:45:24.296Z,992.36
2018-11-04T04:46:24.301Z,992.33
2018-11-04T04:47:24.279Z,992.34
2018-11-04T04:48:24.286Z,992.34
2018-11-04T04:49:24.264Z,992.30
2018-11-04T04:50:24.244Z,992.33
2018-11-04T04:51:24.267Z,992.35
2018-11-04T04:52:24.223Z,992.39
2018-11-04T04:53:24.212Z,992.41
2018-11-04T04:54:24.244Z,992.47
2018-11-04T04:55:24.192Z,992.43
2018-11-04T04:56:24.181Z,992.46
2018-11-04T04:57:24.183Z,992.44
2018-11-04T04:58:24.168Z,992.44
2018-11-04T04:59:24.152Z,992.49
2018-11-04T05:00:24.174Z,992.50
2018-11-04T05:01:24.135Z,992.46
2018-11-04T05:02:24.133Z,992.49
2018-11-04T05:03:24.112Z,992.45
2018-11-04T05:04:24.097Z,992.43
2018-11-04T05:05:24.090Z,992.41
2018-11-04T05:06:24.123Z,992.37
2018-11-04T05:07:24.079Z,992.29
2018-11-04T05:08:24.055Z,992.31
2018-11-04T05:09:24.046Z,992.35
2018-11-04T05:10:24.037Z,992.33
2018-11-04T05:11:24.029Z,992.36
2018-11-04T05:12:24.068Z,992.35
2018-11-04T05:13:24.010Z,992.38
2018-11-04T05:14:24.000Z,992.39
2018-11-04T05:15:23.989Z,992.33
2018-11-04T05:16:23.970Z,992.34
2018-11-04T05:17:23.978Z,992.38
2018-11-04T05:18:23.996Z,992.40
2018-11-04T05:19:23.947Z,992.37
2018-11-04T05:20:23.933Z,992.31
2018-11-04T05:21:23.919Z,992.30
2018-11-04T05:22:23.922Z,992.33
2018-11-04T05:23:23.897Z,992.32
2018-11-04T05:24:23.939Z,992.32
2018-11-04T05:25:23.878Z,992.35
2018-11-04T05:26:23.865Z,992.37
2018-11-04T05:27:23.875Z,992.35
2018-11-04T05:28:23.845Z,992.36
2018-11-04T05:29:23.840Z,992.43
2018-11-04T05:30:23.857Z,992.35
2018-11-04T05:31:23.817Z,992.37
2018-11-04T05:32:23.816Z,992.29
2018-11-04T05:33:23.815Z,992.30
2018-11-04T05:34:23.782Z,992.27
2018-11-04T05:35:23.777Z,992.29
2018-11-04T05:36:23.791Z,992.29
2018-11-04T05:37:23.765Z,992.38
2018-11-04T05:38:23.809Z,992.35
2018-11-04T05:39:23.734Z,992.33
2018-11-04T05:40:23.719Z,992.30
2018-11-04T05:41:23.708Z,992.26
2018-11-04T05:42:23.763Z,992.30
2018-11-04T05:43:23.687Z,992.21
2018-11-04T05:44:23.675Z,992.21
2018-11-04T05:45:23.669Z,992.16
2018-11-04T05:46:23.656Z,992.12
2018-11-04T05:47:23.661Z,992.20
2018-11-04T05:48:23.683Z,992.20
2018-11-04T05:49:23.626Z,992.19
2018-11-04T05:50:23.612Z,992.10
2018-11-04T05:51:23.639Z,992.17
2018-11-04T05:52:23.613Z,992.19
2018-11-04T05:53:23.582Z,992.18
2018-11-04T05:54:23.613Z,992.19
2018-11-04T05:55:23.561Z,992.18
2018-11-04T05:56:23.549Z,992.12
2018-11-04T05:57:23.553Z,992.14
2018-11-04T05:58:23.529Z,992.16
2018-11-04T05:59:23.570Z,992.13
2018-11-04T06:00:23.510Z,992.10
2018-11-04T06:01:23.500Z,992.12
2018-11-04T06:02:23.501Z,992.08
2018-11-04T06:03:23.479Z,992.04
2018-11-04T06:04:23.468Z,992.11
2018-11-04T06:05:23.488Z,992.08
2018-11-04T06:06:23.446Z,992.11
2018-11-04T06:07:23.451Z,992.13
2018-11-04T06:08:23.423Z,992.18
2018-11-04T06:09:23.423Z,992.18
2018-11-04T06:10:23.402Z,992.25
2018-11-04T06:11:23.435Z,992.18
2018-11-04T06:12:23.400Z,992.17
2018-11-04T06:13:23.371Z,992.16
2018-11-04T06:14:23.370Z,992.07
2018-11-04T06:15:23.351Z,992.04
2018-11-04T06:16:23.338Z,992.08
2018-11-04T06:17:23.394Z,992.06
2018-11-04T06:18:23.317Z,992.01
2018-11-04T06:19:23.327Z,992.03
2018-11-04T06:20:23.304Z,992.09
2018-11-04T06:21:23.286Z,992.08
2018-11-04T06:22:23.291Z,992.12
2018-11-04T06:23:23.310Z,992.18
2018-11-04T06:24:23.253Z,992.23
2018-11-04T06:25:23.243Z,992.19
2018-11-04T06:26:23.233Z,992.17
2018-11-04T06:27:23.235Z,992.18
2018-11-04T06:28:23.212Z,992.19
2018-11-04T06:29:23.237Z,992.16
2018-11-04T06:30:23.190Z,992.20
2018-11-04T06:31:23.179Z,992.19
2018-11-04T06:32:23.185Z,992.15
2018-11-04T06:33:23.158Z,992.17
2018-11-04T06:34:23.217Z,992.14
2018-11-04T06:35:23.175Z,992.12
2018-11-04T06:36:23.131Z,992.18
2018-11-04T06:37:23.131Z,992.20
2018-11-04T06:38:23.109Z,992.21
2018-11-04T06:39:23.111Z,992.20
2018-11-04T06:40:23.085Z,992.17
2018-11-04T06:41:23.115Z,992.14
2018-11-04T06:42:23.078Z,992.13
2018-11-04T06:43:23.054Z,992.12
2018-11-04T06:44:23.043Z,992.11
2018-11-04T06:45:23.034Z,992.10
2018-11-04T06:46:23.021Z,992.08
2018-11-04T06:47:23.122Z,992.05
2018-11-04T06:48:23.004Z,992.09
2018-11-04T06:49:22.993Z,992.18
2018-11-04T06:50:22.981Z,992.18
2018-11-04T06:51:22.969Z,992.10
2018-11-04T06:52:22.974Z,992.09
2018-11-04T06:53:22.975Z,992.04
2018-11-04T06:54:22.938Z,992.01
2018-11-04T06:55:22.930Z,991.98
2018-11-04T06:56:22.919Z,991.99
2018-11-04T06:57:22.919Z,991.94
2018-11-04T06:58:22.895Z,991.95
2018-11-04T06:59:22.940Z,991.91
2018-11-04T07:00:22.875Z,991.95
2018-11-04T07:01:22.864Z,991.91
2018-11-04T07:02:22.867Z,991.89
2018-11-04T07:03:22.847Z,991.93
2018-11-04T07:04:22.843Z,991.89
2018-11-04T07:05:22.848Z,991.89
2018-11-04T07:06:22.820Z,991.89
2018-11-04T07:07:22.815Z,991.90
2018-11-04T07:08:22.792Z,991.91
2018-11-04T07:09:22.782Z,991.97
2018-11-04T07:10:22.769Z,991.94
2018-11-04T07:11:22.781Z,992.02
2018-11-04T07:12:22.764Z,991.97
2018-11-04T07:13:22.740Z,992.05
2018-11-04T07:14:22.737Z,992.07
2018-11-04T07:15:22.723Z,992.13
2018-11-04T07:16:22.707Z,992.12
2018-11-04T07:17:22.754Z,992.13
2018-11-04T07:18:22.686Z,992.08
2018-11-04T07:19:22.676Z,992.13
2018-11-04T07:20:22.668Z,992.08
2018-11-04T07:21:22.654Z,992.14
2018-11-04T07:22:22.657Z,992.14
2018-11-04T07:23:22.662Z,992.12
2018-11-04T07:24:22.622Z,992.17
2018-11-04T07:25:22.662Z,992.08
2018-11-04T07:26:22.606Z,992.07
2018-11-04T07:27:22.608Z,992.08
2018-11-04T07:28:22.588Z,992.05
2018-11-04T07:29:22.597Z,992.04
2018-11-04T07:30:22.558Z,992.09
2018-11-04T07:31:22.551Z,992.07
2018-11-04T07:32:22.554Z,992.05
2018-11-04T07:33:22.528Z,992.04
2018-11-04T07:34:22.520Z,992.10
2018-11-04T07:35:22.545Z,992.12
2018-11-04T07:36:22.494Z,992.10
2018-11-04T07:37:22.502Z,992.20
2018-11-04T07:38:22.472Z,992.17
2018-11-04T07:39:22.464Z,992.16
2018-11-04T07:40:22.469Z,992.20
2018-11-04T07:41:22.495Z,992.16
2018-11-04T07:42:22.447Z,992.17
2018-11-04T07:43:22.418Z,992.12
2018-11-04T07:44:22.455Z,992.14
2018-11-04T07:45:22.404Z,992.17
2018-11-04T07:46:22.392Z,992.23
2018-11-04T07:47:22.439Z,992.25
2018-11-04T07:48:22.364Z,992.23
2018-11-04T07:49:22.358Z,992.20
2018-11-04T07:50:22.366Z,992.14
2018-11-04T07:51:22.389Z,992.13
2018-11-04T07:52:22.335Z,992.13
2018-11-04T07:53:22.355Z,992.20
2018-11-04T07:54:22.301Z,992.16
2018-11-04T07:55:22.290Z,992.11
2018-11-04T07:56:22.292Z,992.15
2018-11-04T07:57:22.293Z,992.14
2018-11-04T07:58:22.259Z,992.16
2018-11-04T07:59:22.272Z,992.09
2018-11-04T08:00:22.237Z,992.10
2018-11-04T08:01:22.227Z,992.19
2018-11-04T08:02:22.219Z,992.14
2018-11-04T08:03:22.266Z,992.12
2018-11-04T08:04:22.260Z,992.09
2018-11-04T08:05:22.201Z,992.06
2018-11-04T08:06:22.175Z,992.03
2018-11-04T08:07:22.161Z,991.97
2018-11-04T08:08:22.175Z,991.95
2018-11-04T08:09:22.143Z,992.03
2018-11-04T08:10:22.132Z,992.08
2018-11-04T08:11:22.184Z,992.06
2018-11-04T08:12:22.110Z,992.01
2018-11-04T08:13:22.160Z,992.04
2018-11-04T08:14:22.088Z,992.00
2018-11-04T08:15:22.078Z,991.96
2018-11-04T08:16:22.068Z,991.98
2018-11-04T08:17:22.092Z,991.93
2018-11-04T08:18:22.065Z,991.88
2018-11-04T08:19:22.035Z,991.84
2018-11-04T08:20:22.025Z,991.88
2018-11-04T08:21:22.131Z,991.95
2018-11-04T08:22:22.002Z,991.93
2018-11-04T08:23:22.051Z,991.93
2018-11-04T08:24:21.981Z,991.94
2018-11-04T08:25:21.971Z,991.91
2018-11-04T08:26:21.965Z,991.92
2018-11-04T08:27:21.949Z,991.85
2018-11-04T08:28:21.957Z,991.88
2018-11-04T08:29:21.982Z,991.82
2018-11-04T08:30:21.932Z,991.79
2018-11-04T08:31:21.916Z,991.84
2018-11-04T08:32:21.972Z,991.87
2018-11-04T08:33:21.934Z,991.82
2018-11-04T08:34:21.874Z,991.78
2018-11-04T08:35:21.888Z,991.79
2018-11-04T08:36:21.856Z,991.76
2018-11-04T08:37:21.844Z,991.75
2018-11-04T08:38:21.846Z,991.79
2018-11-04T08:39:21.820Z,991.72
2018-11-04T08:40:21.939Z,991.69
2018-11-04T08:41:21.840Z,991.70
2018-11-04T08:42:21.802Z,991.68
2018-11-04T08:43:21.794Z,991.68
2018-11-04T08:44:21.768Z,991.62
2018-11-04T08:45:21.758Z,991.63
2018-11-04T08:46:21.747Z,991.62
2018-11-04T08:47:21.772Z,991.64
2018-11-04T08:48:21.740Z,991.62
2018-11-04T08:49:21.717Z,991.61
2018-11-04T08:50:21.703Z,991.59
2018-11-04T08:51:21.696Z,991.50
2018-11-04T08:52:21.688Z,991.45
2018-11-04T08:53:21.719Z,991.40
2018-11-04T08:54:21.667Z,991.38
2018-11-04T08:55:21.651Z,991.39
2018-11-04T08:56:21.639Z,991.41
2018-11-04T08:57:21.628Z,991.39
2018-11-04T08:58:21.639Z,991.41
2018-11-04T08:59:21.608Z,991.47
2018-11-04T09:00:21.603Z,991.35
2018-11-04T09:01:21.587Z,991.32
2018-11-04T09:02:21.579Z,991.30
2018-11-04T09:03:21.583Z,991.35
2018-11-04T09:04:21.594Z,991.43
2018-11-04T09:05:21.554Z,991.42
2018-11-04T09:06:21.542Z,991.41
2018-11-04T09:07:21.529Z,991.38
2018-11-04T09:08:21.525Z,991.31
2018-11-04T09:09:21.502Z,991.28
2018-11-04T09:10:21.530Z,991.26
2018-11-04T09:11:21.481Z,991.25
2018-11-04T09:12:21.469Z,991.23
2018-11-04T09:13:21.476Z,991.22
2018-11-04T09:14:21.530Z,991.22
2018-11-04T09:15:21.436Z,991.16
2018-11-04T09:16:21.461Z,991.27
2018-11-04T09:17:21.414Z,991.22
2018-11-04T09:18:21.404Z,991.24
2018-11-04T09:19:21.406Z,991.13
2018-11-04T09:20:21.383Z,991.15
2018-11-04T09:21:21.373Z,991.13
2018-11-04T09:22:21.519Z,991.19
2018-11-04T09:23:21.353Z,991.18
2018-11-04T09:24:21.353Z,991.18
2018-11-04T09:25:21.329Z,991.13
2018-11-04T09:26:21.319Z,991.10
2018-11-04T09:27:21.308Z,991.04
2018-11-04T09:28:21.330Z,991.04
2018-11-04T09:29:21.398Z,990.97
2018-11-04T09:30:21.278Z,990.93
2018-11-04T09:31:21.265Z,990.92
2018-11-04T09:32:21.256Z,990.90
2018-11-04T09:33:21.244Z,990.98
2018-11-04T09:34:21.286Z,991.01
2018-11-04T09:35:21.374Z,991.03
2018-11-04T09:36:21.296Z,990.97
2018-11-04T09:37:21.205Z,991.00
2018-11-04T09:38:21.189Z,990.97
2018-11-04T09:39:21.194Z,991.01
2018-11-04T09:40:21.206Z,990.96
2018-11-04T09:41:21.158Z,990.87
2018-11-04T09:42:21.150Z,990.77
2018-11-04T09:43:21.139Z,990.77
2018-11-04T09:44:21.146Z,990.89
2018-11-04T09:45:21.116Z,990.97
2018-11-04T09:46:21.131Z,990.96
2018-11-04T09:47:21.097Z,990.99
2018-11-04T09:48:21.082Z,990.94
2018-11-04T09:49:21.100Z,990.91
2018-11-04T09:50:21.065Z,990.92
2018-11-04T09:51:21.056Z,990.88
2018-11-04T09:52:21.055Z,990.90
2018-11-04T09:53:21.061Z,990.91
2018-11-04T09:54:21.034Z,990.95
2018-11-04T09:55:21.006Z,990.99
2018-11-04T09:56:21.010Z,990.96
2018-11-04T09:57:20.985Z,990.97
2018-11-04T09:58:20.977Z,990.93
2018-11-04T09:59:20.992Z,990.90
2018-11-04T10:00:20.978Z,990.87
2018-11-04T10:01:20.944Z,990.90
2018-11-04T10:02:20.931Z,990.86
2018-11-04T10:03:20.935Z,990.83
2018-11-04T10:04:20.923Z,990.84
2018-11-04T10:05:20.902Z,990.80
2018-11-04T10:06:20.903Z,990.82
2018-11-04T10:07:20.878Z,990.78
2018-11-04T10:08:20.870Z,990.79
2018-11-04T10:09:20.874Z,990.73
2018-11-04T10:10:20.843Z,990.65
2018-11-04T10:11:20.837Z,990.54
2018-11-04T10:12:20.850Z,990.68
2018-11-04T10:13:20.886Z,990.68
2018-11-04T10:14:20.806Z,990.61
2018-11-04T10:15:20.803Z,990.59
2018-11-04T10:16:20.840Z,990.61
2018-11-04T10:17:20.767Z,990.62
2018-11-04T10:18:20.755Z,990.61
2018-11-04T10:19:21.108Z,990.59
2018-11-04T10:20:20.881Z,990.58
2018-11-04T10:21:20.728Z,990.53
2018-11-04T10:22:20.714Z,990.49
2018-11-04T10:23:20.704Z,990.52
2018-11-04T10:24:20.697Z,990.50
2018-11-04T10:25:20.715Z,990.48
2018-11-04T10:26:20.691Z,990.46
2018-11-04T10:27:20.697Z,990.44
2018-11-04T10:28:20.696Z,990.38
2018-11-04T10:29:20.641Z,990.42
2018-11-04T10:30:20.727Z,990.45
2018-11-04T10:31:20.622Z,990.38
2018-11-04T10:32:20.608Z,990.41
2018-11-04T10:33:20.609Z,990.36
2018-11-04T10:34:20.678Z,990.33
2018-11-04T10:35:20.612Z,990.18
2018-11-04T10:36:20.573Z,990.29
2018-11-04T10:37:20.589Z,990.35
2018-11-04T10:38:20.557Z,990.24
2018-11-04T10:39:20.546Z,990.18
2018-11-04T10:40:20.540Z,990.22
2018-11-04T10:41:20.571Z,990.23
2018-11-04T10:42:20.575Z,990.11
2018-11-04T10:43:20.486Z,989.94
2018-11-04T10:44:20.489Z,989.90
2018-11-04T10:45:20.483Z,989.90
2018-11-04T10:46:20.512Z,990.19
2018-11-04T10:47:20.593Z,990.05
2018-11-04T10:48:20.444Z,990.09
2018-11-04T10:49:20.501Z,989.99
2018-11-04T10:50:20.438Z,990.02
2018-11-04T10:51:20.420Z,990.07
2018-11-04T10:52:20.408Z,990.02
2018-11-04T10:53:20.396Z,989.99
2018-11-04T10:54:20.386Z,990.22
2018-11-04T10:55:20.391Z,990.07
2018-11-04T10:56:20.421Z,990.10
2018-11-04T10:57:20.349Z,990.09
2018-11-04T10:58:20.321Z,990.08
2018-11-04T10:59:20.321Z,990.02
2018-11-04T11:00:20.325Z,990.03
2018-11-04T11:01:20.290Z,990.03
2018-11-04T11:02:20.280Z,990.07
2018-11-04T11:03:20.278Z,990.04
2018-11-04T11:04:20.289Z,990.04
2018-11-04T11:05:20.265Z,990.03
2018-11-04T11:06:20.242Z,990.02
2018-11-04T11:07:20.308Z,990.06
2018-11-04T11:08:20.220Z,990.02
2018-11-04T11:09:20.209Z,990.03
2018-11-04T11:10:20.233Z,990.08
2018-11-04T11:11:20.196Z,990.03
2018-11-04T11:12:20.174Z,990.14
2018-11-04T11:13:20.164Z,990.01
2018-11-04T11:14:20.154Z,990.03
2018-11-04T11:15:20.155Z,990.05
2018-11-04T11:16:20.133Z,989.99
2018-11-04T11:17:20.152Z,989.97
2018-11-04T11:18:20.112Z,989.94
2018-11-04T11:19:20.101Z,989.90
2018-11-04T11:20:20.110Z,989.87
2018-11-04T11:21:20.080Z,989.88
2018-11-04T11:22:20.110Z,989.80
2018-11-04T11:23:20.193Z,989.78
2018-11-04T11:24:20.579Z,989.75
2018-11-04T11:25:21.046Z,989.74
2018-11-04T11:26:20.040Z,989.71
2018-11-04T11:27:20.014Z,989.68
2018-11-04T11:28:20.002Z,989.65
2018-11-04T11:29:19.994Z,989.64
2018-11-04T11:30:20.091Z,989.53
2018-11-04T11:31:19.982Z,989.54
2018-11-04T11:32:19.959Z,989.52
2018-11-04T11:33:19.949Z,989.44
2018-11-04T11:34:19.936Z,989.44
2018-11-04T11:35:19.927Z,989.38
2018-11-04T11:36:19.939Z,989.36
2018-11-04T11:37:19.963Z,989.33
2018-11-04T11:38:19.895Z,989.32
2018-11-04T11:39:19.886Z,989.28
2018-11-04T11:40:19.872Z,989.26
2018-11-04T11:41:19.873Z,989.25
2018-11-04T11:42:19.859Z,989.23
2018-11-04T11:43:19.848Z,989.18
2018-11-04T11:44:19.827Z,989.20
2018-11-04T11:45:19.816Z,989.16
2018-11-04T11:46:19.822Z,989.18
2018-11-04T11:47:19.797Z,989.17
2018-11-04T11:48:19.784Z,989.08
2018-11-04T11:49:19.797Z,989.11
2018-11-04T11:50:19.762Z,989.09
2018-11-04T11:51:19.764Z,989.06
2018-11-04T11:52:19.813Z,988.97
2018-11-04T11:53:19.730Z,989.04
2018-11-04T11:54:19.720Z,988.96
2018-11-04T11:55:19.724Z,988.98
2018-11-04T11:56:19.710Z,988.96
2018-11-04T11:57:19.689Z,988.95
2018-11-04T11:58:19.679Z,988.96
2018-11-04T11:59:19.667Z,988.96
2018-11-04T12:00:19.652Z,988.95
2018-11-04T12:01:19.659Z,988.96
2018-11-04T12:02:19.725Z,988.89
2018-11-04T12:03:19.622Z,988.87
2018-11-04T12:04:19.633Z,988.93
2018-11-04T12:05:19.629Z,988.87
2018-11-04T12:06:19.601Z,988.90
2018-11-04T12:07:19.575Z,988.83
2018-11-04T12:08:19.565Z,988.80
2018-11-04T12:09:19.558Z,988.77
2018-11-04T12:10:19.549Z,988.79
2018-11-04T12:11:19.547Z,988.76
2018-11-04T12:12:19.532Z,988.76
2018-11-04T12:13:19.520Z,988.69
2018-11-04T12:14:19.502Z,988.73
2018-11-04T12:15:19.492Z,988.71
2018-11-04T12:16:19.494Z,988.70
2018-11-04T12:17:19.470Z,988.68
2018-11-04T12:18:19.458Z,988.64
2018-11-04T12:19:19.466Z,988.61
2018-11-04T12:20:19.439Z,988.59
2018-11-04T12:21:19.446Z,988.61
2018-11-04T12:22:19.418Z,988.63
2018-11-04T12:23:19.405Z,988.58
2018-11-04T12:24:19.392Z,988.60
2018-11-04T12:25:19.403Z,988.59
2018-11-04T12:26:19.395Z,988.53
2018-11-04T12:27:19.418Z,988.53
2018-11-04T12:28:19.367Z,988.53